Latest Weather Observations for Dwellingup

IDW60801

Issued at 7:02 am WST Tuesday 23 December 2014 (issued every 30 minutes, with the page automatically refreshed every 10 minutes)

About weather observations | Map of weather stations | Latest weather observations for WA | Other Formats
Station Details ID: 009538 Name: DWELLINGUP Lat: -32.71 Lon: 116.06 Height: 267.0 m
Data from the previous 72 hours. | See also: Recent months at Dwellingup
Date/Time
WST
Temp
°C
App
Temp
°C
Dew
Point
Rel
Hum
%
Delta-T
°C
Wind Press
QNH
hPa
Press
MSL
hPa
Rain
since 9 am
mm
Dir
 
Spd
km/h
Gust
km/h
Spd
kts
Gust
kts
23/07:00am 14.6 9.3 8.3 66 3.2 ESE 26 48 14 26 1021.1 1020.2 0.0
23/06:34am 14.1 8.4 8.5 69 2.8 ESE 28 48 15 26 1020.6 1019.7 0.0
23/06:30am 13.9 8.2 8.3 69 2.8 ESE 28 44 15 24 1020.6 1019.7 0.0
23/06:12am 13.8 8.1 8.4 70 2.7 ESE 28 52 15 28 1020.4 1019.5 0.0
23/06:00am 13.6 8.7 8.4 71 2.6 ESE 24 44 13 24 1020.4 1019.5 0.0
23/05:30am 13.4 8.1 8.3 71 2.6 ESE 26 41 14 22 1020.1 1019.2 0.0
23/05:00am 13.2 8.6 8.3 72 2.5 ESE 22 37 12 20 1019.7 1018.8 0.0
23/04:39am 13.3 7.6 8.2 71 2.6 ESE 28 48 15 26 1019.3 1018.5 0.0
23/04:30am 13.3 8.3 8.2 71 2.6 ESE 24 48 13 26 1019.3 1018.5 0.0
23/04:00am 13.4 7.6 8.0 70 2.7 ESE 28 50 15 27 1019.1 1018.3 0.0
23/03:44am 13.6 7.9 8.2 70 2.7 ESE 28 46 15 25 1018.9 1018.1 0.0
23/03:30am 13.6 8.2 8.2 70 2.7 ESE 26 43 14 23 1018.7 1017.8 0.0
23/03:06am 13.8 8.1 8.2 69 2.8 ESE 28 46 15 25 1018.6 1017.7 0.0
23/03:00am 13.8 8.4 8.2 69 2.8 ESE 26 39 14 21 1018.5 1017.6 0.0
23/02:30am 14.0 8.6 8.2 68 2.9 ESE 26 41 14 22 1018.3 1017.4 0.0
23/02:09am 14.3 8.6 8.3 67 3.0 ESE 28 46 15 25 1018.3 1017.4 0.0
23/02:00am 14.4 9.5 8.4 67 3.0 ESE 24 48 13 26 1018.3 1017.4 0.0
23/01:30am 14.7 9.7 8.0 64 3.4 ESE 24 39 13 21 1018.4 1017.5 0.0
23/01:00am 15.2 10.2 8.0 62 3.6 SE 24 37 13 20 1018.4 1017.5 0.0
23/12:30am 15.7 10.6 7.7 59 4.0 ESE 24 44 13 24 1018.4 1017.5 0.0
23/12:00am 16.3 11.2 7.8 57 4.3 SE 24 41 13 22 1018.1 1017.2 0.0
 
Date/Time
WST
Temp
°C
App
Temp
°C
Dew
Point
Rel
Hum
%
Delta-T
°C
Wind Press
QNH
hPa
Press
MSL
hPa
Rain
since 9 am
mm
Dir
 
Spd
km/h
Gust
km/h
Spd
kts
Gust
kts
22/11:49pm 16.5 10.6 7.7 56 4.5 SE 28 50 15 27 1018.2 1017.3 0.0
22/11:30pm 17.0 11.9 7.6 54 4.8 SE 24 37 13 20 1018.1 1017.2 0.0
22/11:00pm 17.6 12.5 7.6 52 5.1 ESE 24 39 13 21 1018.1 1017.2 0.0
22/10:30pm 18.4 12.6 8.1 51 5.4 SE 28 52 15 28 1017.9 1017.0 0.0
22/10:24pm 18.5 12.4 8.2 51 5.4 SE 30 52 16 28 1018.0 1017.1 0.0
22/10:00pm 18.6 13.7 8.6 52 5.2 SE 24 39 13 21 1017.8 1016.9 0.0
22/09:30pm 18.4 14.5 9.5 56 4.7 SSE 20 33 11 18 1017.7 1016.8 0.0
22/09:00pm 18.1 14.4 10.0 59 4.3 S 20 33 11 18 1017.5 1016.6 0.0
22/08:30pm 17.5 15.0 9.7 60 4.2 SSW 13 17 7 9 1017.3 1016.4 0.0
22/08:00pm 18.5 16.8 9.8 57 4.7 SSW 9 15 5 8 1017.1 1016.2 0.0
22/07:30pm 19.6 17.2 10.0 54 5.2 SW 13 17 7 9 1017.0 1016.1 0.0
22/07:00pm 20.7 19.0 9.9 50 5.9 WSW 9 19 5 10 1016.9 1016.0 0.0
22/06:30pm 22.3 19.5 10.1 46 6.7 SW 15 28 8 15 1016.8 1015.9 0.0
22/06:00pm 22.9 19.5 10.7 46 6.8 SW 19 33 10 18 1016.5 1015.6 0.0
22/05:30pm 23.9 20.5 10.6 43 7.5 SW 19 32 10 17 1016.2 1015.3 0.0
22/05:00pm 24.2 20.9 10.8 43 7.5 SW 19 28 10 15 1016.0 1015.1 0.0
22/04:30pm 24.5 21.4 10.4 41 7.9 SW 17 28 9 15 1016.0 1015.1 0.0
22/04:00pm 25.3 21.2 10.0 38 8.5 SW 22 32 12 17 1016.0 1015.1 0.0
22/03:30pm 26.3 22.9 7.8 31 10.0 SW 15 30 8 16 1016.0 1015.1 0.0
22/03:00pm 26.9 24.1 8.4 31 10.1 SW 13 22 7 12 1016.2 1015.3 0.0
22/02:30pm 25.8 23.3 8.3 33 9.5 SW 11 17 6 9 1016.4 1015.5 0.0
22/02:00pm 25.9 22.9 7.5 31 9.9 SW 13 26 7 14 1016.7 1015.8 0.0
22/01:30pm 25.1 23.2 7.7 33 9.3 ESE 7 15 4 8 1017.0 1016.1 0.0
22/01:00pm 23.9 21.5 8.7 38 8.2 SE 11 19 6 10 1017.4 1016.5 0.0
22/12:30pm 24.6 22.5 9.7 39 8.3 SSW 11 20 6 11 1017.7 1016.8 0.0
22/12:00pm 22.9 21.2 9.7 43 7.2 E 9 17 5 9 1017.9 1017.0 0.0
22/11:30am 21.7 20.1 10.2 48 6.3 ESE 9 19 5 10 1018.3 1017.4 0.0
22/11:00am 20.9 18.6 10.4 51 5.8 SE 13 20 7 11 1018.8 1018.0 0.0
22/10:30am 20.4 17.9 11.1 55 5.2 SE 15 26 8 14 1018.9 1018.1 0.0
22/10:00am 20.2 17.8 11.4 57 4.9 ESE 15 26 8 14 1019.0 1018.2 0.0
22/09:30am 17.7 15.4 10.6 63 3.9 ESE 13 22 7 12 1019.0 1018.2 0.0
22/09:00am 16.8 14.2 10.6 67 3.3 ESE 15 28 8 15 1019.1 1018.3 0.0
22/08:30am 15.5 12.9 10.7 73 2.6 ESE 15 26 8 14 1019.1 1018.3 0.0
22/08:00am 14.7 11.7 10.5 76 2.2 ESE 17 28 9 15 1019.3 1018.5 0.0
22/07:30am 14.3 11.6 10.5 78 2.0 ESE 15 28 8 15 1019.1 1018.3 0.0
22/07:00am 13.7 10.2 10.3 80 1.8 ESE 19 28 10 15 1018.9 1018.1 0.0
22/06:30am 13.6 10.9 10.2 80 1.8 ESE 15 24 8 13 1018.6 1017.7 0.0
22/06:00am 13.2 10.1 10.2 82 1.6 ESE 17 28 9 15 1018.3 1017.4 0.0
22/05:30am 12.6 9.0 9.8 83 1.5 ESE 19 30 10 16 1018.1 1017.2 0.0
22/05:00am 12.2 8.9 9.6 84 1.3 SE 17 24 9 13 1017.8 1016.9 0.0
22/04:30am 12.5 9.2 9.5 82 1.5 SE 17 24 9 13 1017.5 1016.6 0.0
22/04:00am 12.8 9.9 9.6 81 1.7 SE 15 24 8 13 1017.2 1016.3 0.0
22/03:30am 13.2 10.0 9.8 80 1.8 SE 17 30 9 16 1017.1 1016.2 0.0
22/03:00am 13.7 10.1 9.7 77 2.1 SE 19 30 10 16 1017.2 1016.3 0.0
22/02:30am 14.2 11.0 9.8 75 2.3 SE 17 28 9 15 1017.1 1016.2 0.0
22/02:00am 14.9 11.7 10.1 73 2.5 ESE 17 22 9 12 1017.2 1016.3 0.0
22/01:30am 15.5 12.0 10.3 71 2.8 ESE 19 30 10 16 1017.4 1016.5 0.0
22/01:00am 16.0 12.5 10.1 68 3.1 ESE 19 30 10 16 1017.6 1016.7 0.0
22/12:30am 16.6 13.5 10.2 66 3.4 ESE 17 26 9 14 1017.8 1016.9 0.0
22/12:00am 17.0 13.5 10.1 64 3.7 ESE 19 30 10 16 1018.0 1017.1 0.0
 
Date/Time
WST
Temp
°C
App
Temp
°C
Dew
Point
Rel
Hum
%
Delta-T
°C
Wind Press
QNH
hPa
Press
MSL
hPa
Rain
since 9 am
mm
Dir
 
Spd
km/h
Gust
km/h
Spd
kts
Gust
kts
21/11:30pm 17.4 13.8 9.8 61 4.1 ESE 19 32 10 17 1018.1 1017.2 0.0
21/11:00pm 17.6 14.2 9.0 57 4.5 ESE 17 28 9 15 1018.0 1017.1 0.0
21/10:30pm 17.9 14.3 8.2 53 5.0 SE 17 26 9 14 1018.1 1017.2 0.0
21/10:00pm 16.6 13.5 8.8 60 4.1 SSE 15 19 8 10 1017.9 1017.0 0.0
21/09:30pm 16.9 13.9 9.1 60 4.1 SSE 15 17 8 9 1017.7 1016.8 0.0
21/09:00pm 17.7 15.0 8.8 56 4.7 SSE 13 17 7 9 1017.4 1016.5 0.0
21/08:30pm 19.0 16.3 8.9 52 5.3 SSE 13 17 7 9 1017.1 1016.2 0.0
21/08:00pm 20.8 18.0 8.4 45 6.6 SSE 13 17 7 9 1016.8 1015.9 0.0
21/07:30pm 22.4 19.4 7.8 39 7.7 SSE 13 17 7 9 1016.7 1015.8 0.0
21/07:00pm 23.9 20.5 7.5 35 8.7 SSE 15 24 8 13 1016.3 1015.4 0.0
21/06:30pm 25.4 22.5 8.0 33 9.4 SSE 13 24 7 13 1016.1 1015.2 0.0
21/06:00pm 26.5 23.5 7.5 30 10.2 SSE 13 22 7 12 1016.0 1015.1 0.0
21/05:30pm 26.4 23.4 7.9 31 10.0 SSE 13 24 7 13 1015.9 1015.0 0.0
21/05:00pm 26.4 23.1 7.9 31 10.0 SSE 15 26 8 14 1015.8 1014.9 0.0
21/04:30pm 27.1 24.6 8.0 30 10.4 SE 11 20 6 11 1015.8 1014.9 0.0
21/04:00pm 25.9 23.1 8.4 33 9.5 SE 13 26 7 14 1016.1 1015.2 0.0
21/03:30pm 26.5 23.0 8.9 33 9.7 SSE 17 30 9 16 1016.4 1015.5 0.0
21/03:00pm 26.6 23.3 9.5 34 9.5 SSE 17 30 9 16 1016.5 1015.6 0.0
21/02:30pm 26.1 23.1 9.4 35 9.3 SE 15 28 8 15 1016.9 1016.0 0.0
21/02:00pm 24.9 21.9 9.2 37 8.6 SE 15 30 8 16 1017.2 1016.3 0.0
21/01:30pm 24.6 21.5 9.0 37 8.5 SSE 15 24 8 13 1017.5 1016.6 0.0
21/01:00pm 25.5 22.3 10.1 38 8.6 SE 17 33 9 18 1017.6 1016.7 0.0
21/12:30pm 24.1 20.3 9.7 40 8.0 SE 20 32 11 17 1017.8 1016.9 0.0
21/12:00pm 23.2 19.6 9.9 43 7.3 SE 19 33 10 18 1018.1 1017.2 0.0
21/11:30am 22.6 18.5 10.1 45 6.9 SE 22 35 12 19 1018.3 1017.4 0.0
21/11:00am 22.0 18.2 9.9 46 6.6 ESE 20 39 11 21 1018.6 1017.7 0.0
21/10:30am 21.0 16.9 10.2 50 5.9 SE 22 41 12 22 1018.7 1017.8 0.0
21/10:00am 21.3 18.1 11.1 52 5.7 SE 19 33 10 18 1018.6 1017.7 0.0
21/09:30am 20.2 16.1 10.0 52 5.6 SE 22 35 12 19 1018.6 1017.7 0.0
21/09:00am 19.2 15.0 9.9 55 5.0 ESE 22 43 12 23 1018.7 1017.8 0.0
21/08:30am 18.8 14.4 10.4 58 4.6 SE 24 37 13 20 1018.6 1017.7 0.0
21/08:00am 17.5 12.2 9.9 61 4.1 SE 28 46 15 25 1018.5 1017.6 0.0
21/07:30am 16.7 11.4 9.9 64 3.6 SE 28 48 15 26 1018.5 1017.6 0.0
21/07:00am 16.1 10.8 9.8 66 3.3 SE 28 46 15 25 1018.4 1017.5 0.0
21/06:30am 15.9 10.6 9.8 67 3.2 SE 28 50 15 27 1018.2 1017.3 0.0
21/06:07am 15.5 10.2 9.8 69 3.0 SE 28 52 15 28 1017.9 1017.0 0.0
21/06:00am 15.4 11.6 9.7 69 3.0 SE 20 39 11 21 1017.8 1016.9 0.0
21/05:30am 14.9 10.7 9.7 71 2.7 SSE 22 35 12 19 1017.6 1016.7 0.0
21/05:00am 14.6 10.7 9.6 72 2.6 SSE 20 33 11 18 1017.4 1016.5 0.0
21/04:30am 14.4 10.7 9.6 73 2.5 SE 19 32 10 17 1016.9 1016.0 0.0
21/04:00am 14.2 10.3 9.6 74 2.4 SE 20 33 11 18 1016.7 1015.8 0.0
21/03:30am 13.8 10.1 9.5 75 2.2 SE 19 32 10 17 1016.4 1015.5 0.0
21/03:00am 14.1 10.4 9.3 73 2.5 SE 19 28 10 15 1016.4 1015.5 0.0
21/02:30am 14.3 10.4 9.3 72 2.6 SE 20 35 11 19 1016.5 1015.6 0.0
21/02:00am 14.5 10.7 8.9 69 2.9 SE 19 28 10 15 1016.5 1015.6 0.0
21/01:30am 15.1 11.7 9.0 67 3.2 SE 17 26 9 14 1016.6 1015.7 0.0
21/01:00am 15.3 11.3 9.0 66 3.3 SE 20 37 11 20 1016.6 1015.7 0.0
21/12:30am 15.4 11.0 9.1 66 3.3 SE 22 39 12 21 1016.6 1015.7 0.0
21/12:00am 15.8 11.4 9.0 64 3.5 SE 22 33 12 18 1016.6 1015.7 0.0
 
Date/Time
WST
Temp
°C
App
Temp
°C
Dew
Point
Rel
Hum
%
Delta-T
°C
Wind Press
QNH
hPa
Press
MSL
hPa
Rain
since 9 am
mm
Dir
 
Spd
km/h
Gust
km/h
Spd
kts
Gust
kts
20/11:30pm 16.1 11.8 9.3 64 3.6 SE 22 35 12 19 1016.6 1015.7 0.0
20/11:00pm 16.6 12.6 9.1 61 3.9 SSE 20 35 11 19 1016.5 1015.6 0.0
20/10:30pm 17.1 11.9 9.0 59 4.2 SSE 26 41 14 22 1016.3 1015.4 0.0
20/10:10pm 17.5 11.9 8.6 56 4.6 SSE 28 48 15 26 1016.1 1015.2 0.0
20/10:00pm 17.7 12.4 8.6 55 4.7 SSE 26 39 14 21 1016.0 1015.1 0.0
20/09:30pm 18.4 13.0 8.1 51 5.4 SSE 26 48 14 26 1015.8 1014.9 0.0
20/09:00pm 19.1 14.2 6.9 45 6.2 SSE 22 35 12 19 1015.2 1014.3 0.0
20/08:30pm 19.8 15.4 6.5 42 6.8 SSE 19 33 10 18 1014.7 1013.8 0.0
20/08:00pm 20.4 16.0 7.4 43 6.7 SSE 20 32 11 17 1014.1 1013.2 0.0
20/07:30pm 21.4 17.0 6.5 38 7.7 SSE 19 28 10 15 1013.5 1012.6 0.0
20/07:00pm 22.2 17.1 6.0 35 8.3 SSE 22 37 12 20 1012.9 1012.0 0.0
20/06:30pm 23.7 17.6 6.5 33 9.0 SSE 28 44 15 24 1012.3 1011.4 0.0
20/06:00pm 24.7 18.8 7.4 33 9.2 SSE 28 48 15 26 1011.6 1010.7 0.0
20/05:52pm 25.0 19.0 7.2 32 9.5 SSE 28 46 15 25 1011.4 1010.5 0.0
20/05:30pm 25.3 19.8 7.4 32 9.6 SSE 26 44 14 24 1011.0 1010.1 0.0
20/05:00pm 25.8 20.9 8.3 33 9.5 SSE 24 41 13 22 1010.8 1009.9 0.0
20/04:37pm 26.6 21.1 9.0 33 9.7 S 28 50 15 27 1010.5 1009.6 0.0
20/04:30pm 26.8 22.5 9.2 33 9.8 SSE 22 41 12 22 1010.5 1009.6 0.0
20/04:07pm 26.8 21.6 10.1 35 9.4 S 28 46 15 25 1010.1 1009.2 0.0
20/04:00pm 26.9 22.3 11.0 37 9.1 S 26 44 14 24 1010.1 1009.2 0.0
20/03:30pm 27.2 22.8 12.8 41 8.5 SSE 28 48 15 26 1009.9 1009.0 0.0
20/03:00pm 26.8 22.6 13.5 44 7.9 SSE 28 50 15 27 1009.8 1008.9 0.0
20/02:57pm 27.2 23.2 14.2 44 7.9 SSE 28 50 15 27 1009.8 1008.9 0.0
20/02:30pm 27.0 23.6 14.7 47 7.5 S 26 46 14 25 1009.6 1008.7 0.0
20/02:26pm 27.8 24.3 15.5 47 7.6 S 28 46 15 25 1009.5 1008.6 0.0
20/02:00pm 28.8 25.5 15.0 43 8.5 S 26 41 14 22 1009.1 1008.2 0.0
20/01:30pm 29.0 26.2 14.4 41 8.9 SW 22 43 12 23 1008.7 1007.7 0.0
20/01:00pm 29.0 26.1 14.0 39 9.1 SW 22 37 12 20 1008.6 1007.6 0.0
20/12:30pm 29.6 27.0 13.8 38 9.6 SW 20 33 11 18 1008.7 1007.7 0.0
20/12:00pm 28.8 26.3 13.5 39 9.2 SW 19 33 10 18 1008.9 1007.9 0.0
20/11:30am 27.7 25.6 13.6 42 8.5 WSW 17 33 9 18 1009.0 1008.0 0.0
20/11:00am 28.0 25.4 13.1 39 8.9 WSW 19 32 10 17 1008.7 1007.7 0.0
20/10:30am 27.3 25.6 13.6 43 8.2 WSW 15 26 8 14 1008.9 1007.9 0.0
20/10:00am 27.2 26.1 14.2 44 7.9 WSW 13 26 7 14 1008.7 1007.7 0.0
20/09:30am 27.1 26.6 14.8 47 7.5 WSW 11 19 6 10 1008.7 1007.7 0.0
20/09:00am 26.1 26.0 13.9 47 7.3 SW 7 15 4 8 1008.8 1007.8 0.4
20/08:30am 25.0 24.7 12.6 46 7.2 SW 6 13 3 7 1008.8 1007.8 0.4
20/08:00am 23.7 23.2 12.0 48 6.7 SSW 6 9 3 5 1008.7 1007.7 0.2
20/07:30am 22.0 20.7 11.1 50 6.1 SSE 9 13 5 7 1008.7 1007.7 0.2

Other Formats:

Comma delimited format used in spreadsheet applications
http://www.bom.gov.au/fwo/IDW60801/IDW60801.94620.axf

JavaScript Object Notation format (JSON) in row-major order
http://www.bom.gov.au/fwo/IDW60801/IDW60801.94620.json